Time;durP1;ratioP1;P1;durP2;ratioP2;P2;SDS_P1;SDS_P2;PMS_P1;PMS_P2;Temp;Humidity;BMP_temperature;BMP_pressure;BME280_temperature;BME280_humidity;BME280_pressure;Samples;Min_cycle;Max_cycle;Signal;HPM_P1;HPM_P2
2023/05/14 00:01:45;;;;;;;16.70;12.07;;;;;;;;;;5003055;28;20209;-75
2023/05/14 00:04:10;;;;;;;19.80;11.38;;;;;;;;;;5005526;28;20175;-75
2023/05/14 00:06:35;;;;;;;15.82;11.32;;;;;;;;;;5004906;28;20175;-74
2023/05/14 00:09:00;;;;;;;18.10;11.75;;;;;;;;;;5011871;23;21507;-68
2023/05/14 00:11:26;;;;;;;15.35;11.00;;;;;;;;;;5003240;28;20195;-68
2023/05/14 00:13:51;;;;;;;17.25;10.82;;;;;;;;;;5002864;28;20199;-68
2023/05/14 00:16:16;;;;;;;19.33;11.90;;;;;;;;;;5005801;28;20191;-67
2023/05/14 00:18:41;;;;;;;16.23;11.30;;;;;;;;;;4996433;28;20178;-68
2023/05/14 00:21:07;;;;;;;22.25;11.60;;;;;;;;;;5003574;28;20179;-68
2023/05/14 00:23:32;;;;;;;17.45;11.02;;;;;;;;;;5000833;28;20266;-67
2023/05/14 00:25:57;;;;;;;17.63;10.75;;;;;;;;;;5010118;28;20581;-68
2023/05/14 00:28:22;;;;;;;15.57;11.73;;;;;;;;;;5015538;28;20190;-68
2023/05/14 00:30:47;;;;;;;17.20;10.52;;;;;;;;;;5019666;28;20203;-68
2023/05/14 00:33:12;;;;;;;20.70;11.55;;;;;;;;;;5003732;28;20324;-67
2023/05/14 00:35:38;;;;;;;17.25;11.18;;;;;;;;;;5015555;28;20298;-68
2023/05/14 00:38:03;;;;;;;16.83;10.65;;;;;;;;;;5008777;28;20217;-68
2023/05/14 00:40:28;;;;;;;19.48;11.68;;;;;;;;;;5006177;28;20203;-68
2023/05/14 00:42:54;;;;;;;13.07;10.65;;;;;;;;;;5016115;28;20177;-68
2023/05/14 00:45:20;;;;;;;16.25;11.07;;;;;;;;;;5006992;28;20184;-68
2023/05/14 00:47:45;;;;;;;16.52;11.27;;;;;;;;;;5009076;28;20266;-68
2023/05/14 00:50:11;;;;;;;16.45;11.15;;;;;;;;;;4994073;28;20216;-68
2023/05/14 00:52:36;;;;;;;18.05;11.30;;;;;;;;;;5004344;28;20206;-66
2023/05/14 00:55:03;;;;;;;16.73;11.38;;;;;;;;;;5006645;28;20687;-68
2023/05/14 00:57:28;;;;;;;19.40;11.20;;;;;;;;;;5001686;28;20541;-68
2023/05/14 00:59:54;;;;;;;14.95;11.07;;;;;;;;;;5001036;28;20194;-68
2023/05/14 01:02:19;;;;;;;14.50;11.23;;;;;;;;;;5003499;28;20262;-67
2023/05/14 01:04:44;;;;;;;17.88;11.95;;;;;;;;;;5007731;28;20602;-66
2023/05/14 01:07:20;;;;;;;15.25;9.80;;;;;;;;;;5004321;28;20189;-68
2023/05/14 01:09:52;;;;;;;16.17;10.82;;;;;;;;;;5005264;28;20237;-68
2023/05/14 01:12:36;;;;;;;14.95;11.00;;;;;;;;;;5008111;28;20653;-67
2023/05/14 01:15:07;;;;;;;14.27;10.27;;;;;;;;;;5004823;28;20203;-67
2023/05/14 01:17:35;;;;;;;21.25;11.52;;;;;;;;;;4999883;28;20982;-67
2023/05/14 01:20:01;;;;;;;16.75;12.13;;;;;;;;;;5000532;28;20265;-67
2023/05/14 01:22:26;;;;;;;15.07;10.98;;;;;;;;;;4999088;28;20186;-67
2023/05/14 01:24:51;;;;;;;18.17;11.87;;;;;;;;;;4998862;28;20178;-66
2023/05/14 01:27:31;;;;;;;14.63;10.93;;;;;;;;;;5002335;28;20653;-67
2023/05/14 01:30:10;;;;;;;18.02;11.40;;;;;;;;;;5004156;28;20234;-66
2023/05/14 01:32:35;;;;;;;21.92;11.57;;;;;;;;;;5006390;28;20249;-66
2023/05/14 01:35:01;;;;;;;16.90;11.02;;;;;;;;;;5015900;28;20206;-67
2023/05/14 01:37:28;;;;;;;17.83;12.07;;;;;;;;;;5015625;28;20186;-67
2023/05/14 01:39:54;;;;;;;18.55;11.27;;;;;;;;;;5004412;28;20514;-68
2023/05/14 01:42:20;;;;;;;18.98;11.68;;;;;;;;;;5010482;28;20278;-68
2023/05/14 01:44:46;;;;;;;19.05;12.38;;;;;;;;;;5003771;28;20183;-67
2023/05/14 01:47:11;;;;;;;20.67;11.77;;;;;;;;;;5001736;28;20217;-67
2023/05/14 01:49:36;;;;;;;19.47;12.07;;;;;;;;;;5005218;28;20199;-65
2023/05/14 01:52:02;;;;;;;18.20;11.98;;;;;;;;;;5003271;28;20279;-66
2023/05/14 01:54:27;;;;;;;16.88;12.07;;;;;;;;;;5005193;28;20689;-66
2023/05/14 01:56:52;;;;;;;20.97;12.63;;;;;;;;;;5007921;28;20193;-67
2023/05/14 01:59:17;;;;;;;24.13;11.90;;;;;;;;;;5007071;28;20238;-66
2023/05/14 02:01:42;;;;;;;19.58;11.90;;;;;;;;;;5001349;28;20175;-67
2023/05/14 02:04:08;;;;;;;23.45;12.90;;;;;;;;;;5002673;28;20198;-67
2023/05/14 02:06:33;;;;;;;16.83;11.38;;;;;;;;;;5008556;28;20217;-67
2023/05/14 02:08:58;;;;;;;17.43;12.03;;;;;;;;;;5010992;28;20722;-67
2023/05/14 02:11:23;;;;;;;15.83;10.57;;;;;;;;;;5007027;28;20225;-67
2023/05/14 02:13:49;;;;;;;23.17;13.43;;;;;;;;;;5011572;28;20198;-67
2023/05/14 02:16:14;;;;;;;20.63;13.37;;;;;;;;;;4999725;28;20185;-66
2023/05/14 02:18:39;;;;;;;21.17;12.53;;;;;;;;;;4995710;28;20639;-67
2023/05/14 02:21:05;;;;;;;16.95;11.57;;;;;;;;;;4999527;28;20234;-67
2023/05/14 02:23:30;;;;;;;18.35;11.80;;;;;;;;;;5000011;28;20206;-67
2023/05/14 02:25:55;;;;;;;18.30;11.80;;;;;;;;;;5000198;28;20205;-67
2023/05/14 02:28:20;;;;;;;19.65;10.85;;;;;;;;;;5002896;28;20570;-66
2023/05/14 02:30:45;;;;;;;19.48;11.93;;;;;;;;;;5011380;28;20677;-68
2023/05/14 02:33:11;;;;;;;22.63;11.43;;;;;;;;;;5009588;28;20215;-66
2023/05/14 02:35:36;;;;;;;17.35;10.98;;;;;;;;;;5008730;28;20206;-67
2023/05/14 02:38:01;;;;;;;20.10;11.85;;;;;;;;;;5013989;28;20179;-66
2023/05/14 02:40:26;;;;;;;16.88;10.23;;;;;;;;;;5010891;28;20206;-67
2023/05/14 02:42:52;;;;;;;19.55;11.07;;;;;;;;;;5005471;28;20260;-67
2023/05/14 02:45:17;;;;;;;16.63;11.55;;;;;;;;;;5003398;28;20661;-68
2023/05/14 02:47:42;;;;;;;15.75;10.25;;;;;;;;;;5009335;28;20182;-67
2023/05/14 02:50:07;;;;;;;19.48;12.60;;;;;;;;;;5019089;28;20218;-68
2023/05/14 02:52:33;;;;;;;19.65;11.30;;;;;;;;;;5014806;28;20191;-67
2023/05/14 02:54:58;;;;;;;21.48;12.40;;;;;;;;;;5007698;28;20712;-68
2023/05/14 02:57:23;;;;;;;17.13;10.67;;;;;;;;;;5014091;28;20187;-68
2023/05/14 02:59:48;;;;;;;18.47;10.93;;;;;;;;;;5015483;28;20198;-67
2023/05/14 03:02:14;;;;;;;15.07;10.40;;;;;;;;;;5015413;28;20179;-68
2023/05/14 03:04:39;;;;;;;16.87;10.23;;;;;;;;;;5011969;28;20187;-67
2023/05/14 03:07:04;;;;;;;15.00;10.82;;;;;;;;;;5011492;28;20723;-67
2023/05/14 03:09:29;;;;;;;20.33;11.13;;;;;;;;;;5013289;28;20241;-68
2023/05/14 03:11:55;;;;;;;19.20;10.27;;;;;;;;;;5005394;28;20183;-66
2023/05/14 03:14:21;;;;;;;20.25;12.90;;;;;;;;;;5010514;28;20314;-67
2023/05/14 03:16:46;;;;;;;20.33;12.37;;;;;;;;;;4998397;28;20266;-67
2023/05/14 03:19:12;;;;;;;22.63;13.00;;;;;;;;;;4999943;28;20206;-67
2023/05/14 03:21:37;;;;;;;19.17;11.07;;;;;;;;;;5001404;28;20632;-66
2023/05/14 03:24:02;;;;;;;20.52;11.85;;;;;;;;;;5000623;28;20190;-67
2023/05/14 03:26:27;;;;;;;19.45;12.65;;;;;;;;;;5002869;28;20274;-68
2023/05/14 03:28:52;;;;;;;20.37;12.13;;;;;;;;;;5001043;28;20200;-67
2023/05/14 03:31:18;;;;;;;20.17;11.90;;;;;;;;;;5003434;28;20260;-66
2023/05/14 03:33:43;;;;;;;17.50;11.80;;;;;;;;;;5002000;28;20186;-66
2023/05/14 03:36:08;;;;;;;20.73;12.17;;;;;;;;;;5001902;28;20199;-66
2023/05/14 03:38:33;;;;;;;19.03;11.93;;;;;;;;;;5002846;28;20249;-67
2023/05/14 03:40:59;;;;;;;19.75;13.00;;;;;;;;;;5001765;28;20187;-67
2023/05/14 03:43:24;;;;;;;21.50;12.43;;;;;;;;;;5002962;28;20265;-67
2023/05/14 03:45:51;;;;;;;20.67;12.73;;;;;;;;;;5007188;28;20214;-67
2023/05/14 03:48:16;;;;;;;19.83;13.20;;;;;;;;;;5018407;28;20178;-67
2023/05/14 03:50:42;;;;;;;18.90;12.37;;;;;;;;;;5010384;28;20337;-67
2023/05/14 03:53:07;;;;;;;21.23;12.48;;;;;;;;;;5017432;28;20184;-66
2023/05/14 03:55:32;;;;;;;21.73;12.33;;;;;;;;;;5011412;28;20207;-66
2023/05/14 03:57:57;;;;;;;19.33;11.73;;;;;;;;;;5006930;28;20175;-66
2023/05/14 04:00:22;;;;;;;17.90;12.10;;;;;;;;;;5013240;28;20230;-67
2023/05/14 04:02:48;;;;;;;19.53;11.80;;;;;;;;;;5005871;28;20206;-66
2023/05/14 04:05:13;;;;;;;18.67;12.88;;;;;;;;;;5009653;28;20214;-67
2023/05/14 04:07:38;;;;;;;19.57;12.30;;;;;;;;;;5002401;28;20183;-67
2023/05/14 04:10:03;;;;;;;18.77;11.25;;;;;;;;;;5011158;28;20692;-65
2023/05/14 04:12:29;;;;;;;21.75;12.98;;;;;;;;;;5005118;28;20191;-67
2023/05/14 04:14:55;;;;;;;18.67;10.90;;;;;;;;;;5009609;28;20254;-67
2023/05/14 04:17:20;;;;;;;21.58;11.93;;;;;;;;;;5008492;28;20189;-67
2023/05/14 04:19:46;;;;;;;22.70;12.97;;;;;;;;;;5011582;28;20207;-67
2023/05/14 04:22:11;;;;;;;19.63;12.23;;;;;;;;;;5010504;28;20179;-66
2023/05/14 04:24:36;;;;;;;17.98;10.57;;;;;;;;;;5018313;28;20179;-67
2023/05/14 04:27:01;;;;;;;18.02;11.75;;;;;;;;;;5005903;28;20214;-65
2023/05/14 04:29:26;;;;;;;21.90;13.18;;;;;;;;;;4995614;28;20205;-65
2023/05/14 04:31:52;;;;;;;17.98;11.73;;;;;;;;;;5001007;28;20416;-68
2023/05/14 04:34:17;;;;;;;17.20;11.82;;;;;;;;;;4999435;28;20676;-66
2023/05/14 04:36:42;;;;;;;16.63;12.13;;;;;;;;;;5001569;28;20536;-67
2023/05/14 04:39:11;;;;;;;23.50;11.85;;;;;;;;;;4999739;28;20688;-67
2023/05/14 04:41:36;;;;;;;17.70;10.98;;;;;;;;;;4999807;28;20210;-66
2023/05/14 04:44:02;;;;;;;18.05;10.85;;;;;;;;;;5002002;28;20207;-65
2023/05/14 04:46:27;;;;;;;19.77;10.15;;;;;;;;;;5001209;28;20199;-67
2023/05/14 04:48:52;;;;;;;18.55;11.43;;;;;;;;;;5001121;28;20183;-67
2023/05/14 04:51:17;;;;;;;14.43;10.10;;;;;;;;;;5001227;28;20205;-66
2023/05/14 04:53:43;;;;;;;14.85;11.13;;;;;;;;;;5001330;28;20229;-67
2023/05/14 04:56:08;;;;;;;18.73;11.57;;;;;;;;;;5011601;28;20186;-66
2023/05/14 04:58:34;;;;;;;16.08;10.05;;;;;;;;;;5012721;28;20183;-67
2023/05/14 05:01:00;;;;;;;13.70;10.13;;;;;;;;;;5014657;28;20236;-67
2023/05/14 05:03:25;;;;;;;20.10;11.52;;;;;;;;;;5008034;28;20183;-67
2023/05/14 05:05:50;;;;;;;22.05;10.23;;;;;;;;;;5011291;28;20640;-66
2023/05/14 05:08:16;;;;;;;17.58;10.77;;;;;;;;;;5012154;28;20198;-67
2023/05/14 05:10:41;;;;;;;14.35;10.52;;;;;;;;;;5011438;28;20643;-66
2023/05/14 05:13:06;;;;;;;18.27;11.57;;;;;;;;;;5001355;28;20175;-66
2023/05/14 05:15:31;;;;;;;15.00;10.57;;;;;;;;;;5004789;28;20210;-66
2023/05/14 05:17:57;;;;;;;14.48;9.73;;;;;;;;;;5000738;28;20172;-67
2023/05/14 05:20:23;;;;;;;14.27;10.18;;;;;;;;;;5009814;28;20225;-67
2023/05/14 05:22:48;;;;;;;18.65;11.25;;;;;;;;;;5008053;28;20190;-67
2023/05/14 05:25:14;;;;;;;19.05;9.82;;;;;;;;;;5012429;28;20198;-66
2023/05/14 05:27:39;;;;;;;14.90;9.05;;;;;;;;;;5007509;28;20226;-67
2023/05/14 05:30:05;;;;;;;18.88;9.68;;;;;;;;;;5002734;28;20281;-67
2023/05/14 05:32:30;;;;;;;17.23;9.88;;;;;;;;;;5005168;28;20655;-67
2023/05/14 05:34:55;;;;;;;17.30;10.05;;;;;;;;;;5012989;28;20206;-67
2023/05/14 05:37:21;;;;;;;14.15;10.35;;;;;;;;;;5000669;28;20592;-67
2023/05/14 05:39:47;;;;;;;15.45;9.15;;;;;;;;;;5006941;28;20245;-67
2023/05/14 05:42:12;;;;;;;15.40;9.13;;;;;;;;;;5008317;28;20179;-67
2023/05/14 05:44:37;;;;;;;18.05;9.68;;;;;;;;;;5005192;28;20671;-67
2023/05/14 05:47:02;;;;;;;13.88;8.18;;;;;;;;;;5003815;28;20183;-68
2023/05/14 05:49:28;;;;;;;20.08;8.98;;;;;;;;;;5008392;28;20593;-67
2023/05/14 05:51:53;;;;;;;12.20;9.35;;;;;;;;;;5007857;28;20183;-66
2023/05/14 05:54:18;;;;;;;15.23;9.02;;;;;;;;;;4997012;28;20214;-68
2023/05/14 05:56:43;;;;;;;11.35;8.65;;;;;;;;;;5009872;28;20185;-66
2023/05/14 05:59:08;;;;;;;14.07;9.40;;;;;;;;;;5001876;28;20234;-66
2023/05/14 06:01:34;;;;;;;13.07;8.25;;;;;;;;;;4998310;28;20646;-66
2023/05/14 06:03:59;;;;;;;13.07;7.78;;;;;;;;;;5008131;28;20183;-67
2023/05/14 06:06:24;;;;;;;13.40;8.45;;;;;;;;;;5007653;28;20271;-66
2023/05/14 06:08:49;;;;;;;10.70;8.00;;;;;;;;;;5008101;28;20175;-67
2023/05/14 06:11:15;;;;;;;9.07;6.93;;;;;;;;;;4991162;22;20235;-75
2023/05/14 06:13:41;;;;;;;10.75;8.00;;;;;;;;;;4973366;28;20560;-72
2023/05/14 06:16:06;;;;;;;13.43;7.80;;;;;;;;;;4972133;28;20208;-75
2023/05/14 06:18:31;;;;;;;9.10;7.53;;;;;;;;;;4970655;28;20184;-74
2023/05/14 06:20:58;;;;;;;11.63;7.57;;;;;;;;;;4973849;28;20621;-74
2023/05/14 06:23:25;;;;;;;14.90;7.18;;;;;;;;;;4977110;28;20179;-74
2023/05/14 06:25:50;;;;;;;10.45;7.22;;;;;;;;;;4965549;28;20215;-74
2023/05/14 06:28:15;;;;;;;12.57;7.75;;;;;;;;;;4970772;28;20216;-74
2023/05/14 06:30:40;;;;;;;15.35;8.23;;;;;;;;;;4967062;28;20204;-74
2023/05/14 06:33:06;;;;;;;11.68;7.63;;;;;;;;;;4978549;28;20207;-74
2023/05/14 06:35:31;;;;;;;16.98;8.50;;;;;;;;;;4961193;28;20212;-73
2023/05/14 06:37:56;;;;;;;10.57;8.10;;;;;;;;;;4965321;28;20264;-73
2023/05/14 06:40:21;;;;;;;10.05;7.32;;;;;;;;;;4965114;28;20259;-73
2023/05/14 06:42:47;;;;;;;15.57;8.68;;;;;;;;;;4964681;28;20184;-73
2023/05/14 06:45:12;;;;;;;14.70;8.40;;;;;;;;;;4966455;28;20200;-74
2023/05/14 06:47:37;;;;;;;14.13;8.27;;;;;;;;;;4964183;28;20179;-73
2023/05/14 06:50:03;;;;;;;13.45;8.50;;;;;;;;;;4969113;28;20713;-73
2023/05/14 06:52:28;;;;;;;9.95;7.28;;;;;;;;;;4973869;28;20198;-74
2023/05/14 06:54:53;;;;;;;11.85;7.28;;;;;;;;;;4974399;28;20201;-74
2023/05/14 06:57:19;;;;;;;11.18;7.50;;;;;;;;;;4969699;28;20230;-75
2023/05/14 06:59:44;;;;;;;11.90;7.55;;;;;;;;;;4971788;28;20201;-73
2023/05/14 07:02:09;;;;;;;12.10;8.07;;;;;;;;;;4977122;28;20231;-73
2023/05/14 07:04:35;;;;;;;10.52;7.15;;;;;;;;;;4970233;28;20709;-73
2023/05/14 07:07:00;;;;;;;12.00;7.68;;;;;;;;;;4970347;28;20176;-73
2023/05/14 07:09:25;;;;;;;10.68;7.43;;;;;;;;;;4971222;28;20196;-74
2023/05/14 07:11:50;;;;;;;12.13;8.37;;;;;;;;;;4976105;28;20900;-73
2023/05/14 07:14:16;;;;;;;13.20;7.20;;;;;;;;;;4971086;28;20457;-73
2023/05/14 07:16:41;;;;;;;10.68;7.38;;;;;;;;;;4976557;28;20790;-74
2023/05/14 07:19:07;;;;;;;10.13;7.20;;;;;;;;;;4962168;28;20200;-74
2023/05/14 07:21:32;;;;;;;11.20;6.90;;;;;;;;;;4973412;28;20219;-74
2023/05/14 07:23:57;;;;;;;10.77;7.53;;;;;;;;;;4973555;28;20172;-74
2023/05/14 07:26:23;;;;;;;10.57;6.65;;;;;;;;;;4974376;28;20433;-74
2023/05/14 07:28:48;;;;;;;18.30;8.13;;;;;;;;;;4977635;28;20176;-74
2023/05/14 07:31:13;;;;;;;8.50;7.18;;;;;;;;;;4978536;28;20193;-74
2023/05/14 07:33:38;;;;;;;12.17;7.70;;;;;;;;;;4974931;28;20177;-74
2023/05/14 07:36:04;;;;;;;9.27;6.73;;;;;;;;;;4980078;28;21113;-75
2023/05/14 07:38:29;;;;;;;10.38;7.35;;;;;;;;;;4972573;28;20481;-74
2023/05/14 07:40:55;;;;;;;9.02;6.55;;;;;;;;;;4977973;28;20200;-74
2023/05/14 07:43:20;;;;;;;9.45;6.05;;;;;;;;;;4974325;28;20222;-74
2023/05/14 07:45:45;;;;;;;8.98;5.53;;;;;;;;;;4973127;28;20188;-72
2023/05/14 07:48:11;;;;;;;6.85;5.45;;;;;;;;;;4969946;28;20195;-74
2023/05/14 07:50:36;;;;;;;8.03;5.70;;;;;;;;;;4972884;28;20274;-74
2023/05/14 07:53:01;;;;;;;6.90;5.90;;;;;;;;;;4990050;28;20481;-74
2023/05/14 07:55:26;;;;;;;9.02;6.25;;;;;;;;;;4967877;28;20283;-74
2023/05/14 07:57:52;;;;;;;8.73;5.90;;;;;;;;;;4969217;28;20661;-74
2023/05/14 08:00:17;;;;;;;8.33;5.37;;;;;;;;;;4967150;28;20224;-74
2023/05/14 08:02:43;;;;;;;9.20;6.00;;;;;;;;;;4977859;28;20429;-74
2023/05/14 08:05:08;;;;;;;7.45;5.70;;;;;;;;;;4976398;28;20176;-75
2023/05/14 08:07:33;;;;;;;7.32;5.30;;;;;;;;;;4974692;28;20187;-75
2023/05/14 08:09:59;;;;;;;6.57;5.10;;;;;;;;;;4973928;28;20216;-74
2023/05/14 08:12:25;;;;;;;13.10;4.95;;;;;;;;;;4972080;28;20247;-72
2023/05/14 08:14:50;;;;;;;5.93;5.32;;;;;;;;;;4972350;28;20200;-72
2023/05/14 08:17:15;;;;;;;7.65;5.20;;;;;;;;;;4967642;28;20175;-72
2023/05/14 08:19:41;;;;;;;9.67;5.03;;;;;;;;;;4962723;28;20258;-73
2023/05/14 08:22:06;;;;;;;8.60;4.63;;;;;;;;;;4965892;28;20453;-73
2023/05/14 08:24:31;;;;;;;6.57;4.67;;;;;;;;;;4967014;28;20525;-73
2023/05/14 08:26:56;;;;;;;9.63;4.78;;;;;;;;;;4966577;28;20438;-73
2023/05/14 08:29:21;;;;;;;6.85;4.57;;;;;;;;;;4967665;28;20671;-73
2023/05/14 08:31:48;;;;;;;6.43;4.30;;;;;;;;;;4967822;28;20686;-73
2023/05/14 08:34:13;;;;;;;6.97;4.30;;;;;;;;;;4964668;28;20718;-74
2023/05/14 08:36:39;;;;;;;6.32;4.00;;;;;;;;;;4964788;28;20188;-73
2023/05/14 08:39:06;;;;;;;6.55;4.05;;;;;;;;;;4965466;28;20183;-73
2023/05/14 08:41:31;;;;;;;5.97;4.18;;;;;;;;;;4967116;28;20239;-73
2023/05/14 08:44:06;;;;;;;5.50;4.15;;;;;;;;;;4967845;28;20180;-74
2023/05/14 08:46:32;;;;;;;7.40;3.83;;;;;;;;;;4964908;28;20262;-73
2023/05/14 08:49:07;;;;;;;7.85;4.70;;;;;;;;;;4964854;28;20267;-73
2023/05/14 08:51:33;;;;;;;6.13;4.47;;;;;;;;;;4966145;28;20173;-73
2023/05/14 08:54:01;;;;;;;10.40;5.05;;;;;;;;;;4966598;28;20231;-73
2023/05/14 08:56:26;;;;;;;6.95;5.25;;;;;;;;;;4966694;28;20188;-73
2023/05/14 08:58:51;;;;;;;7.72;4.45;;;;;;;;;;4965984;28;20181;-73
2023/05/14 09:01:17;;;;;;;10.30;4.50;;;;;;;;;;4966552;28;20561;-73
2023/05/14 09:03:42;;;;;;;6.93;4.40;;;;;;;;;;4967307;28;20393;-72
2023/05/14 09:06:08;;;;;;;7.28;5.13;;;;;;;;;;4967200;28;20187;-72
2023/05/14 09:08:42;;;;;;;13.45;4.90;;;;;;;;;;4967015;28;20658;-75
2023/05/14 09:11:08;;;;;;;5.95;4.63;;;;;;;;;;4967076;28;20306;-73
2023/05/14 09:13:35;;;;;;;5.95;3.85;;;;;;;;;;4969547;28;20283;-73
2023/05/14 09:16:01;;;;;;;6.57;4.10;;;;;;;;;;4966726;28;20258;-73
2023/05/14 09:18:26;;;;;;;5.80;4.55;;;;;;;;;;4966971;28;20196;-73
2023/05/14 09:20:51;;;;;;;8.55;5.20;;;;;;;;;;4961902;28;20199;-73
2023/05/14 09:23:17;;;;;;;7.32;5.20;;;;;;;;;;4965758;28;20211;-73
2023/05/14 09:25:44;;;;;;;9.60;4.90;;;;;;;;;;4966096;28;20180;-74
2023/05/14 09:28:09;;;;;;;6.78;4.10;;;;;;;;;;4963168;28;20186;-73
2023/05/14 09:30:35;;;;;;;12.32;4.22;;;;;;;;;;4964146;28;20585;-73
2023/05/14 09:33:02;;;;;;;6.55;4.38;;;;;;;;;;4961645;28;20180;-74
2023/05/14 09:35:28;;;;;;;6.75;4.00;;;;;;;;;;4964907;28;20302;-74
2023/05/14 09:37:53;;;;;;;6.40;3.78;;;;;;;;;;4967325;28;20605;-73
2023/05/14 09:40:20;;;;;;;6.45;4.50;;;;;;;;;;4965584;28;20208;-73
2023/05/14 09:42:45;;;;;;;4.72;3.63;;;;;;;;;;4967961;28;20181;-74
2023/05/14 09:45:11;;;;;;;7.82;4.70;;;;;;;;;;4965211;28;20203;-74
2023/05/14 09:47:36;;;;;;;5.00;3.60;;;;;;;;;;4987225;28;20654;-74
2023/05/14 09:50:02;;;;;;;8.75;4.90;;;;;;;;;;4970233;28;20269;-74
2023/05/14 09:52:28;;;;;;;5.88;3.85;;;;;;;;;;4965952;28;20184;-73
2023/05/14 09:54:53;;;;;;;7.88;4.20;;;;;;;;;;4965861;28;20206;-73
2023/05/14 09:57:19;;;;;;;7.55;4.10;;;;;;;;;;4966129;28;20716;-74
2023/05/14 09:59:44;;;;;;;9.65;4.43;;;;;;;;;;4964741;28;20694;-74
2023/05/14 10:02:32;;;;;;;7.65;4.25;;;;;;;;;;4966765;28;20172;-74
2023/05/14 10:04:59;;;;;;;7.22;3.72;;;;;;;;;;4966273;28;20195;-74
2023/05/14 10:07:28;;;;;;;7.15;3.70;;;;;;;;;;4966304;28;22582;-74
2023/05/14 10:09:55;;;;;;;7.00;4.28;;;;;;;;;;4966341;28;20302;-74
2023/05/14 10:12:21;;;;;;;9.55;4.40;;;;;;;;;;4965293;28;20180;-74
2023/05/14 10:14:52;;;;;;;7.35;4.07;;;;;;;;;;4965769;28;20742;-74
2023/05/14 10:17:18;;;;;;;6.28;3.92;;;;;;;;;;4963953;28;20242;-74
2023/05/14 10:19:49;;;;;;;6.70;3.80;;;;;;;;;;4965506;28;20192;-74
2023/05/14 10:22:15;;;;;;;5.72;3.47;;;;;;;;;;4963885;28;20282;-74
2023/05/14 10:24:41;;;;;;;9.23;4.32;;;;;;;;;;4966387;28;20359;-74
2023/05/14 10:27:06;;;;;;;7.75;4.35;;;;;;;;;;4973327;28;20804;-74
2023/05/14 10:29:36;;;;;;;5.45;3.78;;;;;;;;;;4979568;28;20195;-74
2023/05/14 10:32:05;;;;;;;7.00;3.97;;;;;;;;;;4972803;28;20275;-74
2023/05/14 10:34:32;;;;;;;7.05;3.50;;;;;;;;;;4963331;28;20203;-74
2023/05/14 10:37:01;;;;;;;6.22;3.50;;;;;;;;;;4958902;28;20183;-75
2023/05/14 10:39:49;;;;;;;10.63;4.07;;;;;;;;;;4962386;28;20199;-72
2023/05/14 10:42:21;;;;;;;10.32;4.28;;;;;;;;;;4958309;28;20192;-74
2023/05/14 10:44:48;;;;;;;9.65;4.10;;;;;;;;;;4962256;28;20196;-75
2023/05/14 10:47:14;;;;;;;4.82;3.20;;;;;;;;;;4963395;28;20196;-74
2023/05/14 10:49:40;;;;;;;8.07;3.75;;;;;;;;;;4964574;28;20573;-73
2023/05/14 10:52:07;;;;;;;9.60;4.22;;;;;;;;;;4963466;28;20183;-73
2023/05/14 10:54:34;;;;;;;3.88;3.00;;;;;;;;;;4961566;28;20720;-73
2023/05/14 10:56:59;;;;;;;6.10;3.55;;;;;;;;;;4967260;28;20217;-73
2023/05/14 10:59:26;;;;;;;9.70;4.27;;;;;;;;;;4968094;28;20180;-73
2023/05/14 11:01:51;;;;;;;5.65;4.13;;;;;;;;;;4968521;28;20985;-73
2023/05/14 11:04:17;;;;;;;8.93;3.57;;;;;;;;;;4968619;28;20208;-74
2023/05/14 11:06:43;;;;;;;9.73;4.50;;;;;;;;;;4977016;28;20436;-74
2023/05/14 11:09:08;;;;;;;5.45;3.72;;;;;;;;;;4987898;28;20646;-74
2023/05/14 11:11:34;;;;;;;5.47;3.47;;;;;;;;;;4972443;28;20200;-74
2023/05/14 11:13:59;;;;;;;9.45;3.50;;;;;;;;;;4971809;28;20662;-74
2023/05/14 11:16:29;;;;;;;10.13;4.17;;;;;;;;;;4975541;28;22448;-72
2023/05/14 11:19:02;;;;;;;9.05;3.60;;;;;;;;;;4973839;28;20475;-73
2023/05/14 11:21:27;;;;;;;9.20;3.30;;;;;;;;;;4973642;28;20626;-73
2023/05/14 11:23:53;;;;;;;8.48;4.18;;;;;;;;;;4974329;28;20169;-72
2023/05/14 11:26:18;;;;;;;8.88;3.85;;;;;;;;;;4974855;28;20179;-72
2023/05/14 11:28:44;;;;;;;5.50;3.33;;;;;;;;;;4971965;28;20192;-72
2023/05/14 11:31:09;;;;;;;4.00;3.28;;;;;;;;;;4973092;28;20574;-73
2023/05/14 11:33:34;;;;;;;5.70;3.57;;;;;;;;;;4971732;28;20172;-73
2023/05/14 11:36:00;;;;;;;5.45;3.42;;;;;;;;;;4974798;28;20458;-73
2023/05/14 11:38:25;;;;;;;7.13;3.93;;;;;;;;;;4973153;28;20192;-72
2023/05/14 11:40:51;;;;;;;4.90;3.38;;;;;;;;;;4974080;28;20508;-72
2023/05/14 11:43:17;;;;;;;4.45;3.47;;;;;;;;;;4972964;28;20251;-72
2023/05/14 11:45:42;;;;;;;5.72;3.50;;;;;;;;;;4974166;28;20231;-72
2023/05/14 11:48:10;;;;;;;6.23;3.23;;;;;;;;;;4971443;28;20188;-72
2023/05/14 11:50:36;;;;;;;4.70;3.22;;;;;;;;;;4988391;28;20952;-72
2023/05/14 11:53:01;;;;;;;5.40;3.17;;;;;;;;;;4971695;28;20212;-72
2023/05/14 11:55:26;;;;;;;6.30;4.43;;;;;;;;;;4974095;28;20552;-71
2023/05/14 11:57:51;;;;;;;9.60;3.72;;;;;;;;;;4973442;28;20453;-72
2023/05/14 12:00:20;;;;;;;5.47;2.97;;;;;;;;;;4972487;28;20230;-67
2023/05/14 12:02:46;;;;;;;4.43;3.65;;;;;;;;;;4989411;28;20257;-73
2023/05/14 12:05:12;;;;;;;11.80;3.50;;;;;;;;;;4988593;28;20176;-73
2023/05/14 12:07:37;;;;;;;4.85;3.58;;;;;;;;;;4973308;28;20172;-72
2023/05/14 12:10:03;;;;;;;7.18;3.70;;;;;;;;;;4987535;22;20243;-67
2023/05/14 12:12:33;;;;;;;9.48;3.35;;;;;;;;;;4988934;28;20290;-68
2023/05/14 12:14:58;;;;;;;4.82;3.60;;;;;;;;;;4971251;28;20667;-68
2023/05/14 12:17:23;;;;;;;4.30;3.30;;;;;;;;;;4969912;28;20270;-68
2023/05/14 12:19:52;;;;;;;5.70;3.37;;;;;;;;;;4979209;28;20449;-68
2023/05/14 12:22:18;;;;;;;4.95;3.20;;;;;;;;;;4970912;28;20269;-68
2023/05/14 12:24:54;;;;;;;4.90;3.00;;;;;;;;;;4972270;28;20706;-68
2023/05/14 12:27:23;;;;;;;6.38;3.00;;;;;;;;;;4971170;28;20210;-67
2023/05/14 12:29:52;;;;;;;5.75;2.60;;;;;;;;;;4973298;28;20203;-67
2023/05/14 12:32:18;;;;;;;4.38;3.30;;;;;;;;;;4970867;28;20175;-67
2023/05/14 12:34:43;;;;;;;6.13;2.85;;;;;;;;;;4972320;28;20211;-67
2023/05/14 12:37:09;;;;;;;6.70;2.92;;;;;;;;;;4971103;28;20188;-68
2023/05/14 12:39:34;;;;;;;10.43;3.00;;;;;;;;;;4975942;28;20193;-67
2023/05/14 12:42:00;;;;;;;4.03;3.05;;;;;;;;;;4973470;28;20484;-68
2023/05/14 12:44:25;;;;;;;3.97;3.08;;;;;;;;;;4970468;28;20242;-68
2023/05/14 12:46:50;;;;;;;4.23;2.77;;;;;;;;;;4972848;28;20223;-68
2023/05/14 12:49:15;;;;;;;4.50;3.25;;;;;;;;;;4972539;28;20451;-67
2023/05/14 12:51:41;;;;;;;3.28;2.90;;;;;;;;;;4971855;28;20282;-67
2023/05/14 12:54:06;;;;;;;4.20;2.40;;;;;;;;;;4971423;28;20211;-68
2023/05/14 12:56:31;;;;;;;3.67;2.90;;;;;;;;;;4972025;28;20196;-68
2023/05/14 12:58:56;;;;;;;5.43;3.63;;;;;;;;;;4972056;28;20175;-68
2023/05/14 13:01:22;;;;;;;3.53;2.95;;;;;;;;;;4974965;28;20507;-68
2023/05/14 13:03:47;;;;;;;3.72;2.78;;;;;;;;;;4970510;28;20912;-68
2023/05/14 13:06:12;;;;;;;4.97;3.00;;;;;;;;;;4970923;28;20184;-68
2023/05/14 13:08:37;;;;;;;3.97;2.90;;;;;;;;;;4970652;28;20425;-68
2023/05/14 13:11:02;;;;;;;3.83;2.87;;;;;;;;;;4970912;28;20299;-68
2023/05/14 13:13:28;;;;;;;4.77;2.70;;;;;;;;;;4972275;28;20993;-68
2023/05/14 13:15:53;;;;;;;5.55;3.00;;;;;;;;;;4972354;28;20971;-68
2023/05/14 13:18:18;;;;;;;4.30;2.83;;;;;;;;;;4970892;28;20601;-69
2023/05/14 13:20:44;;;;;;;4.20;3.40;;;;;;;;;;4970068;28;20524;-68
2023/05/14 13:23:09;;;;;;;4.20;3.13;;;;;;;;;;4971001;28;20440;-69
2023/05/14 13:25:34;;;;;;;5.95;2.88;;;;;;;;;;4971380;28;20192;-68
2023/05/14 13:28:00;;;;;;;9.00;3.23;;;;;;;;;;4972770;28;20237;-68
2023/05/14 13:30:25;;;;;;;5.95;3.40;;;;;;;;;;4971310;28;20457;-68
2023/05/14 13:32:50;;;;;;;8.32;3.40;;;;;;;;;;4973586;28;20191;-67
2023/05/14 13:35:16;;;;;;;7.13;3.17;;;;;;;;;;4972340;28;20735;-68
2023/05/14 13:37:42;;;;;;;4.15;3.60;;;;;;;;;;4971146;28;20194;-68
2023/05/14 13:40:07;;;;;;;6.45;3.45;;;;;;;;;;4973194;28;20203;-69
2023/05/14 13:42:33;;;;;;;5.07;3.03;;;;;;;;;;4971383;28;20567;-69
2023/05/14 13:44:58;;;;;;;5.68;3.03;;;;;;;;;;4971600;28;20184;-68
2023/05/14 13:47:24;;;;;;;4.90;2.97;;;;;;;;;;4974584;28;20324;-68
2023/05/14 13:49:49;;;;;;;4.80;3.67;;;;;;;;;;4971770;28;20857;-67
2023/05/14 13:52:15;;;;;;;6.85;3.30;;;;;;;;;;4969724;28;20258;-68
2023/05/14 13:54:40;;;;;;;4.25;3.30;;;;;;;;;;4968047;28;20195;-68
2023/05/14 13:57:05;;;;;;;6.53;3.13;;;;;;;;;;4972487;28;20195;-68
2023/05/14 13:59:30;;;;;;;4.22;3.08;;;;;;;;;;4971392;28;20425;-68
2023/05/14 14:01:55;;;;;;;6.20;3.23;;;;;;;;;;4971579;28;20189;-68
2023/05/14 14:04:21;;;;;;;5.83;3.53;;;;;;;;;;4969114;28;21896;-67
2023/05/14 14:06:48;;;;;;;3.97;3.22;;;;;;;;;;4969676;28;20748;-68
2023/05/14 14:09:13;;;;;;;4.95;3.38;;;;;;;;;;4970426;28;20182;-68
2023/05/14 14:11:39;;;;;;;4.35;3.83;;;;;;;;;;4970669;28;20879;-67
2023/05/14 14:14:05;;;;;;;8.73;4.03;;;;;;;;;;4970252;28;20195;-68
2023/05/14 14:16:30;;;;;;;5.47;4.40;;;;;;;;;;4970751;28;20474;-68
2023/05/14 14:18:56;;;;;;;6.00;3.67;;;;;;;;;;4968409;28;20465;-67
2023/05/14 14:21:21;;;;;;;8.52;4.25;;;;;;;;;;4970871;28;20541;-67
2023/05/14 14:23:47;;;;;;;6.00;4.30;;;;;;;;;;4970150;28;20271;-67